Hauptseite
METAR-TAF:

METAR-TAF

Flughäfen :

Flugplatz Wiesbaden-Erbenheim

Wiesbaden, Deutschland

Breite: 50-03N, Länge: 008-20E, Höhe: 140 m

Beobachtung

Neuester Wetterbericht von vor 42 Minuten, um 10:56 UTC
Wind 8 kt aus Nord/Nordost
Temperatur 26°C
Luftfeuchtigkeit 34%
Luftdruck 1018 hPa
Sichtweite 10 km oder mehr
Himmel klar

METAR: ETOU 191056Z AUTO 02008KT 9999 CLR 26/09 A3006 RMK AO2 SLP176 T02600089 $

Zeit: 13:38 (11:38 UTC)

Prognose

Neuester Wetterbericht von vor 33 Minuten, um 11:05 UTC
Gültige Prognose vom 19 um 11 UTC bis 20 um 17 UTC
Wind 6 kt aus unterschiedlichen Richtungen
Sichtweite 10 km oder mehr
Leicht bewölkt in der Höhe von 7000 ft
Übergehend zu
vom 19 um 18 UTC bis 19 um 19 UTC
Wind 12 kt aus Nordost
Sichtweite 10 km oder mehr
Himmel klar

TAF: ETOU 191105Z 1911/2017 VRB06KT 9999 FEW070 QNH3004INS BECMG 1918/1919 04012KT 9999 SKC QNH3007INS TX28/1915Z TN10/2004Z

Wetterbeobachtungen und Prognosen von mehr als 4000 Flughäfen (METAR und TAF Bericht).

Die verfügbaren Stationen werden durch gelbe und rote Markierungen auf der Karte dargestellt.

Führen Sie die Maus auf sie, um den Namen der Station zu sehen.

Darauf klicken, um die Beobachtung von Wetterbeobachtungen und Prognosen zu sehen.

Um die Karte zu ändern : klicken Sie auf den grünen Tasten mit einem schwarzen Kreuz Zum Vergrößern, auf den grünen Button mit einem Gedankenstrich zu verkleinern, oder auf die grünen Pfeile für benachbarte Karten.


METAR-TAF: